Miniplon — FIDV — position and weather

sailwx.info

Track history (hours):
 
Tides and Currents Weather Stations Pressure Air Temp Water Temp Dewpoint Dewpoint Depression Visibility Wind Speed Wind Dir Waves Ship Positions

Miniplon

Last reported at 2018-Apr-16 08:54 UTC. Time now 2018-Apr-21 11:53 UTC.
Position N 46°30' W 001°47'.

Type: SAR. MMSI: 228024600.

Date/timePositionNaut miles runAvg speedWind from/ knotsBaromVisibWave heightAir tempDewpointWater temp
2018-Apr-16 08:54N 46°30' W 001°47'0 0.0
2018-Apr-16 08:30N 46°30' W 001°47'0 0.0
2018-Apr-16 08:00N 46°30' W 001°47'0 0.0
2018-Apr-16 07:30N 46°30' W 001°47'  
2018-Apr-13 06:38N 46°30' W 001°47'0 2.3
2018-Apr-13 06:30N 46°30' W 001°48'0 0.6
2018-Apr-13 06:00N 46°30' W 001°47'0 0.0
2018-Apr-13 05:30N 46°30' W 001°47'0 0.0
2018-Apr-13 05:00N 46°30' W 001°47'0 0.0
2018-Apr-13 04:30N 46°30' W 001°47'0 0.0
2018-Apr-13 04:00N 46°30' W 001°47'0 0.0
2018-Apr-13 03:30N 46°30' W 001°47'0 0.0
2018-Apr-13 03:00N 46°30' W 001°47'0 0.0
2018-Apr-13 02:30N 46°30' W 001°47'0 0.0
2018-Apr-13 02:00N 46°30' W 001°47'0 0.0
2018-Apr-13 01:30N 46°30' W 001°47'0 0.0
2018-Apr-13 01:00N 46°30' W 001°47'0 0.0
2018-Apr-13 00:30N 46°30' W 001°47'0 0.0
2018-Apr-13 00:00N 46°30' W 001°47'0 0.0
2018-Apr-12 23:30N 46°30' W 001°47'0 0.0
2018-Apr-12 23:00N 46°30' W 001°47'1 2.8
2018-Apr-12 22:30N 46°29' W 001°47'4 8.5
2018-Apr-12 22:00N 46°31' W 001°53'4 8.7
2018-Apr-12 21:30N 46°34' W 001°57'53 4.3
2018-Apr-12 09:22N 47°14' W 002°46'2 5.3
2018-Apr-12 08:58N 47°16' W 002°44'4 8.5
2018-Apr-12 08:30N 47°18' W 002°40'4 9.0
2018-Apr-12 08:00N 47°20' W 002°33'2 3.3
2018-Apr-12 07:24N 47°21' W 002°31'42 8.8
2018-Apr-12 02:40N 46°42' W 002°08'2 7.8
2018-Apr-12 02:28N 46°41' W 002°07'4 7.9
2018-Apr-12 02:00N 46°38' W 002°03'4 8.2
2018-Apr-12 01:30N 46°35' W 001°59'4 8.3
2018-Apr-12 01:00N 46°32' W 001°55'4 8.0
2018-Apr-12 00:30N 46°29' W 001°51'3 5.4
2018-Apr-12 00:00N 46°29' W 001°47'1 2.3
2018-Apr-11 23:31N 46°30' W 001°47'0 0.0
2018-Apr-11 22:58N 46°30' W 001°47'0 0.0
2018-Apr-11 22:28N 46°30' W 001°47'0 0.0
2018-Apr-11 22:01N 46°30' W 001°47'0 0.0
2018-Apr-11 21:31N 46°30' W 001°47'0 0.0
2018-Apr-11 21:01N 46°30' W 001°47'0 0.0
2018-Apr-11 20:28N 46°30' W 001°47'0 0.0
2018-Apr-11 20:01N 46°30' W 001°47'0 0.0
2018-Apr-11 19:31N 46°30' W 001°47'0 0.0
2018-Apr-11 18:58N 46°30' W 001°47'0 0.0
2018-Apr-11 18:31N 46°30' W 001°47'0 0.0
2018-Apr-11 17:58N 46°30' W 001°47'0 0.0
2018-Apr-11 17:28N 46°30' W 001°47'0 0.0
2018-Apr-11 17:01N 46°30' W 001°47'0 0.3
2018-Apr-11 16:28N 46°30' W 001°47'  
Track history (hours):
 
Tides and Currents Weather Stations Pressure Air Temp Water Temp Dewpoint Dewpoint Depression Visibility Wind Speed Wind Dir Waves Ship Positions

Miniplon

Last reported at 2018-Apr-16 08:54 UTC. Time now 2018-Apr-21 11:53 UTC.
Position N 46°30' W 001°47'.

Type: SAR. MMSI: 228024600.

Date/timePositionNaut miles runAvg speedWind from/ knotsBaromVisibWave heightAir tempDewpointWater temp
2018-Apr-16 08:54N 46°30' W 001°47'0 0.0
2018-Apr-16 08:30N 46°30' W 001°47'0 0.0
2018-Apr-16 08:00N 46°30' W 001°47'0 0.0
2018-Apr-16 07:30N 46°30' W 001°47'  
2018-Apr-13 06:38N 46°30' W 001°47'0 2.3
2018-Apr-13 06:30N 46°30' W 001°48'0 0.6
2018-Apr-13 06:00N 46°30' W 001°47'0 0.0
2018-Apr-13 05:30N 46°30' W 001°47'0 0.0
2018-Apr-13 05:00N 46°30' W 001°47'0 0.0
2018-Apr-13 04:30N 46°30' W 001°47'0 0.0
2018-Apr-13 04:00N 46°30' W 001°47'0 0.0
2018-Apr-13 03:30N 46°30' W 001°47'0 0.0
2018-Apr-13 03:00N 46°30' W 001°47'0 0.0
2018-Apr-13 02:30N 46°30' W 001°47'0 0.0
2018-Apr-13 02:00N 46°30' W 001°47'0 0.0
2018-Apr-13 01:30N 46°30' W 001°47'0 0.0
2018-Apr-13 01:00N 46°30' W 001°47'0 0.0
2018-Apr-13 00:30N 46°30' W 001°47'0 0.0
2018-Apr-13 00:00N 46°30' W 001°47'0 0.0
2018-Apr-12 23:30N 46°30' W 001°47'0 0.0
2018-Apr-12 23:00N 46°30' W 001°47'1 2.8
2018-Apr-12 22:30N 46°29' W 001°47'4 8.5
2018-Apr-12 22:00N 46°31' W 001°53'4 8.7
2018-Apr-12 21:30N 46°34' W 001°57'53 4.3
2018-Apr-12 09:22N 47°14' W 002°46'2 5.3
2018-Apr-12 08:58N 47°16' W 002°44'4 8.5
2018-Apr-12 08:30N 47°18' W 002°40'4 9.0
2018-Apr-12 08:00N 47°20' W 002°33'2 3.3
2018-Apr-12 07:24N 47°21' W 002°31'42 8.8
2018-Apr-12 02:40N 46°42' W 002°08'2 7.8
2018-Apr-12 02:28N 46°41' W 002°07'4 7.9
2018-Apr-12 02:00N 46°38' W 002°03'4 8.2
2018-Apr-12 01:30N 46°35' W 001°59'4 8.3
2018-Apr-12 01:00N 46°32' W 001°55'4 8.0
2018-Apr-12 00:30N 46°29' W 001°51'3 5.4
2018-Apr-12 00:00N 46°29' W 001°47'1 2.3
2018-Apr-11 23:31N 46°30' W 001°47'0 0.0
2018-Apr-11 22:58N 46°30' W 001°47'0 0.0
2018-Apr-11 22:28N 46°30' W 001°47'0 0.0
2018-Apr-11 22:01N 46°30' W 001°47'0 0.0
2018-Apr-11 21:31N 46°30' W 001°47'0 0.0
2018-Apr-11 21:01N 46°30' W 001°47'0 0.0
2018-Apr-11 20:28N 46°30' W 001°47'0 0.0
2018-Apr-11 20:01N 46°30' W 001°47'0 0.0
2018-Apr-11 19:31N 46°30' W 001°47'0 0.0
2018-Apr-11 18:58N 46°30' W 001°47'0 0.0
2018-Apr-11 18:31N 46°30' W 001°47'0 0.0
2018-Apr-11 17:58N 46°30' W 001°47'0 0.0
2018-Apr-11 17:28N 46°30' W 001°47'0 0.0
2018-Apr-11 17:01N 46°30' W 001°47'0 0.3
2018-Apr-11 16:28N 46°30' W 001°47'  

Dump ship's entire track history